Time;durP1;ratioP1;P1;durP2;ratioP2;P2;SDS_P1;SDS_P2;PMS_P1;PMS_P2;Temp;Humidity;BMP_temperature;BMP_pressure;BME280_temperature;BME280_humidity;BME280_pressure;Samples;Min_cycle;Max_cycle;Signal;HPM_P1;HPM_P2
2023/10/31 00:00:17;;;;;;;5.47;4.40;;;;;;;7.51;73.98;98368.09;4995693;28;20045;-49
2023/10/31 00:02:44;;;;;;;6.10;3.60;;;;;;;7.48;73.57;98370.72;4994013;28;20053;-47
2023/10/31 00:05:10;;;;;;;6.80;4.45;;;;;;;7.45;73.73;98369.03;5000087;28;20050;-49
2023/10/31 00:07:37;;;;;;;8.85;4.47;;;;;;;7.44;72.94;98367.34;4996842;28;20074;-49
2023/10/31 00:10:04;;;;;;;10.23;4.75;;;;;;;7.41;73.08;98365.69;5003998;28;20479;-49
2023/10/31 00:12:32;;;;;;;11.85;4.45;;;;;;;7.41;73.52;98373.41;4995591;28;20050;-48
2023/10/31 00:14:58;;;;;;;9.23;4.68;;;;;;;7.41;73.11;98368.25;4992859;28;20496;-47
2023/10/31 00:17:25;;;;;;;10.30;4.93;;;;;;;7.43;73.50;98381.09;4996998;28;20065;-46
2023/10/31 00:19:52;;;;;;;6.78;3.72;;;;;;;7.43;73.68;98389.66;5000215;28;20052;-45
2023/10/31 00:22:19;;;;;;;11.10;5.82;;;;;;;7.44;72.75;98383.63;5007847;28;20056;-45
2023/10/31 00:24:46;;;;;;;10.80;5.43;;;;;;;7.44;73.19;98387.94;4997762;28;20059;-51
2023/10/31 00:27:14;;;;;;;10.32;6.72;;;;;;;7.41;73.39;98382.84;4996964;28;20084;-47
2023/10/31 00:29:41;;;;;;;9.02;5.50;;;;;;;7.40;72.94;98381.97;4999296;28;20054;-45
2023/10/31 00:32:07;;;;;;;10.23;5.07;;;;;;;7.39;73.33;98375.13;5000561;28;20057;-49
2023/10/31 00:34:34;;;;;;;11.57;5.55;;;;;;;7.41;73.63;98383.72;4997064;28;20060;-49
2023/10/31 00:37:01;;;;;;;9.38;5.28;;;;;;;7.43;73.32;98381.94;5004794;28;20496;-50
2023/10/31 00:39:28;;;;;;;8.52;5.32;;;;;;;7.40;72.80;98381.97;5003174;28;20076;-47
2023/10/31 00:41:54;;;;;;;10.50;4.60;;;;;;;7.38;74.56;98383.75;4999937;28;20054;-46
2023/10/31 00:44:21;;;;;;;8.52;4.78;;;;;;;7.32;73.78;98386.41;4997645;28;20384;-46
2023/10/31 00:46:48;;;;;;;7.65;2.95;;;;;;;7.25;74.15;98387.38;4990885;28;20309;-51
2023/10/31 00:49:14;;;;;;;4.65;3.72;;;;;;;7.18;72.94;98384.94;4993521;28;20511;-48
2023/10/31 00:51:41;;;;;;;5.38;4.65;;;;;;;7.14;72.67;98370.41;5003798;28;20050;-46
2023/10/31 00:54:08;;;;;;;6.35;5.43;;;;;;;7.12;73.38;98381.59;5001861;28;20050;-46
2023/10/31 00:56:34;;;;;;;7.22;4.32;;;;;;;7.09;74.22;98382.47;5001247;28;20041;-47
2023/10/31 00:59:01;;;;;;;6.35;3.08;;;;;;;7.06;73.79;98388.53;4997446;28;20387;-47
2023/10/31 01:01:28;;;;;;;10.32;4.70;;;;;;;7.06;73.13;98392.84;4995724;28;20492;-47
2023/10/31 01:03:55;;;;;;;9.32;5.22;;;;;;;7.05;74.06;98393.69;4992523;28;20706;-46
2023/10/31 01:06:21;;;;;;;7.32;3.50;;;;;;;7.04;74.31;98385.16;5000318;28;20587;-51
2023/10/31 01:08:48;;;;;;;6.93;4.25;;;;;;;7.07;73.87;98389.38;5004050;28;20045;-47
2023/10/31 01:11:15;;;;;;;13.18;4.80;;;;;;;7.07;74.02;98381.66;4995568;28;22851;-47
2023/10/31 01:13:41;;;;;;;13.68;5.45;;;;;;;7.09;72.96;98382.47;4997004;28;20050;-48
2023/10/31 01:16:08;;;;;;;12.73;7.05;;;;;;;7.10;73.67;98376.47;4991812;28;20050;-51
2023/10/31 01:18:35;;;;;;;6.50;4.13;;;;;;;7.11;74.34;98380.75;4999963;28;20081;-51
2023/10/31 01:21:02;;;;;;;8.23;4.65;;;;;;;7.13;74.38;98383.28;4999824;28;20053;-48
2023/10/31 01:23:28;;;;;;;12.25;4.47;;;;;;;7.11;74.21;98375.59;4997597;28;20046;-50
2023/10/31 01:25:55;;;;;;;8.82;4.70;;;;;;;7.11;73.30;98375.59;4997553;28;20050;-48
2023/10/31 01:28:21;;;;;;;14.63;4.75;;;;;;;7.09;74.70;98377.31;5003665;28;20045;-50
2023/10/31 01:30:48;;;;;;;8.88;5.10;;;;;;;7.07;73.62;98385.06;5005184;28;20057;-48
2023/10/31 01:33:15;;;;;;;7.57;5.38;;;;;;;7.05;73.81;98375.69;5001277;28;20069;-46
2023/10/31 01:35:43;;;;;;;49.63;5.40;;;;;;;7.00;74.85;98380.06;4999942;28;20495;-47
2023/10/31 01:38:10;;;;;;;51.70;5.05;;;;;;;6.96;74.74;98378.41;5000882;28;20101;-50
2023/10/31 01:40:37;;;;;;;62.67;4.95;;;;;;;6.88;74.35;98374.22;5003130;28;20049;-48
2023/10/31 01:43:03;;;;;;;42.13;5.72;;;;;;;6.85;74.90;98373.41;5000611;28;20042;-52
2023/10/31 01:45:30;;;;;;;33.13;5.53;;;;;;;6.84;74.75;98376.84;4994865;28;20053;-51
2023/10/31 01:47:57;;;;;;;49.13;6.03;;;;;;;6.84;74.63;98376.84;4995141;28;20046;-48
2023/10/31 01:50:24;;;;;;;62.08;6.43;;;;;;;6.82;74.12;98384.59;5004557;28;20078;-47
2023/10/31 01:52:52;;;;;;;53.10;6.18;;;;;;;6.79;74.20;98384.66;5007035;28;20042;-46
2023/10/31 01:55:19;;;;;;;28.00;5.35;;;;;;;6.77;73.71;98384.66;5004350;28;20046;-50
2023/10/31 01:57:47;;;;;;;27.88;5.75;;;;;;;6.77;73.60;98394.09;5004478;28;20077;-46
2023/10/31 02:00:14;;;;;;;22.00;5.43;;;;;;;6.79;75.35;98394.94;5001935;28;20053;-53
2023/10/31 02:02:42;;;;;;;20.85;5.85;;;;;;;6.79;74.90;98395.78;4999679;28;20354;-49
2023/10/31 02:05:09;;;;;;;17.63;5.57;;;;;;;6.80;74.98;98397.47;4996110;28;20053;-51
2023/10/31 02:07:36;;;;;;;11.88;5.10;;;;;;;6.81;75.27;98399.19;5001205;28;20050;-48
2023/10/31 02:10:03;;;;;;;16.45;4.78;;;;;;;6.80;75.40;98397.47;5012871;28;20052;-49
2023/10/31 02:12:33;;;;;;;16.48;5.35;;;;;;;6.84;74.45;98403.44;5003485;28;20050;-47
2023/10/31 02:15:00;;;;;;;10.68;5.35;;;;;;;6.86;75.14;98403.44;5005168;28;20050;-48
2023/10/31 02:17:27;;;;;;;15.90;4.95;;;;;;;6.88;74.04;98402.53;5005776;28;20046;-49
2023/10/31 02:19:54;;;;;;;26.40;4.78;;;;;;;6.88;74.53;98405.09;5007595;28;20049;-46
2023/10/31 02:22:22;;;;;;;18.20;5.75;;;;;;;6.89;73.87;98404.22;5008175;28;20077;-49
2023/10/31 02:24:49;;;;;;;21.00;4.90;;;;;;;6.89;73.63;98411.94;4996557;28;20053;-50
2023/10/31 02:27:15;;;;;;;31.42;4.85;;;;;;;6.90;75.51;98408.53;5001364;28;20418;-51
2023/10/31 02:29:42;;;;;;;22.80;4.43;;;;;;;6.90;74.99;98413.66;5000644;28;20058;-45
2023/10/31 02:32:09;;;;;;;22.45;5.15;;;;;;;6.91;73.91;98402.50;5000424;28;20047;-45
2023/10/31 02:34:36;;;;;;;16.80;5.15;;;;;;;6.92;74.11;98411.03;5001956;28;20089;-47
2023/10/31 02:37:02;;;;;;;18.90;4.53;;;;;;;6.90;74.64;98408.53;5007356;28;20048;-43
2023/10/31 02:39:29;;;;;;;19.00;4.35;;;;;;;6.90;74.23;98408.53;5006946;28;20053;-47
2023/10/31 02:41:56;;;;;;;42.45;5.18;;;;;;;6.90;75.37;98405.94;5005390;28;20057;-50
2023/10/31 02:44:22;;;;;;;18.58;5.72;;;;;;;6.90;74.18;98411.09;5005061;28;20050;-45
2023/10/31 02:46:49;;;;;;;36.20;5.43;;;;;;;6.91;74.69;98414.50;4994140;28;20046;-44
2023/10/31 02:49:16;;;;;;;18.98;5.90;;;;;;;6.91;75.55;98410.22;5003666;28;20065;-48
2023/10/31 02:51:42;;;;;;;12.13;5.35;;;;;;;6.91;74.58;98407.63;5003852;28;20059;-44
2023/10/31 02:54:09;;;;;;;13.55;4.20;;;;;;;6.90;75.53;98400.78;5005973;28;20056;-43
2023/10/31 02:56:35;;;;;;;30.95;5.03;;;;;;;6.87;74.39;98403.41;5003823;28;20057;-45
2023/10/31 02:59:02;;;;;;;22.60;4.97;;;;;;;6.87;74.73;98408.56;5005240;28;20046;-45
2023/10/31 03:01:29;;;;;;;22.15;4.75;;;;;;;6.84;74.65;98400.88;5000994;28;20045;-47
2023/10/31 03:03:56;;;;;;;24.30;5.10;;;;;;;6.82;75.45;98400.03;4981530;28;20496;-50
2023/10/31 03:06:23;;;;;;;17.00;4.90;;;;;;;6.80;75.72;98392.31;4989585;28;20065;-49
2023/10/31 03:08:49;;;;;;;13.38;4.65;;;;;;;6.80;74.68;98388.91;4986126;28;20058;-55
2023/10/31 03:11:24;;;;;;;32.25;4.88;;;;;;;6.79;75.29;98400.09;4979664;28;20050;-43
2023/10/31 03:13:53;;;;;;;19.60;5.60;;;;;;;6.80;74.27;98399.22;4982726;28;20046;-48
2023/10/31 03:16:20;;;;;;;26.60;4.25;;;;;;;6.79;75.87;98394.94;4987949;28;20452;-50
2023/10/31 03:18:46;;;;;;;33.85;5.88;;;;;;;6.79;74.78;98400.09;4983070;28;20130;-49
2023/10/31 03:21:14;;;;;;;30.73;4.63;;;;;;;6.79;76.07;98397.53;4998766;28;20049;-47
2023/10/31 03:23:43;;;;;;;31.00;4.90;;;;;;;6.80;75.88;98391.50;5005878;28;20052;-47
2023/10/31 03:26:10;;;;;;;41.58;5.50;;;;;;;6.80;75.27;98381.19;5000871;28;20053;-47
2023/10/31 03:28:36;;;;;;;18.85;5.38;;;;;;;6.81;75.79;98394.03;4998239;28;20046;-46
2023/10/31 03:31:03;;;;;;;21.55;5.35;;;;;;;6.84;74.75;98384.56;5000022;28;20132;-48
2023/10/31 03:33:30;;;;;;;33.60;4.88;;;;;;;6.87;74.47;98381.94;4997758;28;20046;-48
2023/10/31 03:35:56;;;;;;;41.58;4.90;;;;;;;6.86;75.80;98375.13;4999961;28;20054;-46
2023/10/31 03:38:23;;;;;;;55.63;5.53;;;;;;;6.86;74.55;98388.81;5001301;28;20045;-50
2023/10/31 03:40:50;;;;;;;34.03;3.92;;;;;;;6.85;75.84;98392.25;5005559;28;20041;-49
2023/10/31 03:43:17;;;;;;;28.60;4.72;;;;;;;6.83;74.39;98386.31;4997134;28;20050;-48
2023/10/31 03:45:43;;;;;;;28.40;5.22;;;;;;;6.80;75.59;98386.34;4999073;28;20050;-47
2023/10/31 03:48:10;;;;;;;31.55;4.88;;;;;;;6.80;75.29;98386.34;4997341;28;20501;-54
2023/10/31 03:50:36;;;;;;;11.10;4.88;;;;;;;6.80;75.22;98378.63;5006464;28;20502;-47
2023/10/31 03:53:03;;;;;;;20.98;4.65;;;;;;;6.79;74.79;98379.50;5004378;28;20049;-47
2023/10/31 03:55:30;;;;;;;34.05;4.47;;;;;;;6.79;76.13;98376.94;5003124;28;20046;-51
2023/10/31 03:57:56;;;;;;;27.55;5.00;;;;;;;6.80;75.17;98388.91;5005249;28;20038;-51
2023/10/31 04:00:23;;;;;;;22.35;5.38;;;;;;;6.82;75.63;98389.72;5002679;28;20560;-46
2023/10/31 04:02:50;;;;;;;24.65;5.60;;;;;;;6.83;75.38;98391.47;5008109;28;20042;-50
2023/10/31 04:05:17;;;;;;;30.10;4.97;;;;;;;6.83;75.55;98391.47;5002113;28;20507;-48
2023/10/31 04:07:47;;;;;;;44.55;5.15;;;;;;;6.84;75.66;98388.00;4999590;28;20050;-48
2023/10/31 04:10:14;;;;;;;27.45;5.47;;;;;;;6.84;75.06;98388.00;5004619;28;20049;-49
2023/10/31 04:12:41;;;;;;;38.50;4.55;;;;;;;6.85;76.73;98394.84;4999381;28;20046;-48
2023/10/31 04:15:09;;;;;;;23.40;5.28;;;;;;;6.87;76.57;98398.25;5006067;28;20049;-47
2023/10/31 04:17:36;;;;;;;50.83;5.28;;;;;;;6.87;75.09;98393.13;4997855;28;20186;-44
2023/10/31 04:20:03;;;;;;;34.45;4.63;;;;;;;6.88;75.86;98391.38;5004526;28;20569;-49
2023/10/31 04:22:29;;;;;;;44.22;5.40;;;;;;;6.87;76.58;98393.13;5000296;28;20077;-46
2023/10/31 04:24:56;;;;;;;56.10;5.88;;;;;;;6.86;76.06;98393.97;4994439;28;20054;-50
2023/10/31 04:27:23;;;;;;;39.53;5.10;;;;;;;6.84;77.27;98403.44;4996233;28;20053;-48
2023/10/31 04:29:49;;;;;;;44.22;5.38;;;;;;;6.84;76.08;98402.56;4996956;28;20049;-51
2023/10/31 04:32:16;;;;;;;27.65;5.32;;;;;;;6.82;76.02;98410.31;4998290;28;20113;-48
2023/10/31 04:34:43;;;;;;;35.67;4.13;;;;;;;6.82;77.34;98410.31;5002350;28;20077;-50
2023/10/31 04:37:10;;;;;;;41.65;5.05;;;;;;;6.82;76.99;98410.31;4998506;28;20087;-49
2023/10/31 04:39:36;;;;;;;46.63;5.32;;;;;;;6.85;76.54;98423.16;4997910;28;20141;-51
2023/10/31 04:42:03;;;;;;;30.10;4.75;;;;;;;6.84;76.62;98413.75;4994823;28;20491;-45
2023/10/31 04:44:30;;;;;;;49.35;5.45;;;;;;;6.83;77.73;98419.75;5001336;28;20053;-48
2023/10/31 04:46:56;;;;;;;43.80;5.82;;;;;;;6.83;77.72;98417.19;4995518;28;20507;-52
2023/10/31 04:49:23;;;;;;;89.18;7.18;;;;;;;6.84;76.45;98418.88;4999805;28;20561;-52
2023/10/31 04:51:50;;;;;;;73.53;6.10;;;;;;;6.85;77.40;98423.16;5002697;28;20050;-52
2023/10/31 04:54:17;;;;;;;26.33;5.30;;;;;;;6.84;78.19;98421.47;4999710;28;20052;-47
2023/10/31 04:56:43;;;;;;;12.13;4.25;;;;;;;6.85;78.22;98428.28;4998056;28;20471;-50
2023/10/31 04:59:10;;;;;;;14.43;5.40;;;;;;;6.88;78.13;98425.69;4996810;28;20046;-48
2023/10/31 05:01:37;;;;;;;16.50;5.32;;;;;;;6.92;77.72;98421.34;4992081;28;20054;-48
2023/10/31 05:04:04;;;;;;;28.48;6.90;;;;;;;6.93;78.02;98429.03;4996652;28;20130;-44
2023/10/31 05:06:39;;;;;;;16.77;6.22;;;;;;;6.96;78.67;98427.31;5002924;28;20120;-47
2023/10/31 05:09:05;;;;;;;16.52;5.45;;;;;;;6.98;77.45;98441.00;5008952;28;20504;-47
2023/10/31 05:11:32;;;;;;;29.00;5.53;;;;;;;7.01;78.12;98440.97;5002935;28;20140;-47
2023/10/31 05:13:59;;;;;;;9.68;4.57;;;;;;;7.04;76.88;98456.38;5002764;28;20046;-47
2023/10/31 05:16:26;;;;;;;9.13;4.35;;;;;;;7.09;77.33;98454.56;4999617;28;20088;-48
2023/10/31 05:18:53;;;;;;;11.25;5.32;;;;;;;7.13;78.26;98456.22;4998570;28;20042;-48
2023/10/31 05:21:21;;;;;;;10.35;4.78;;;;;;;7.18;78.10;98466.47;4991100;28;20069;-45
2023/10/31 05:23:47;;;;;;;11.25;5.63;;;;;;;7.22;76.66;98469.88;4997598;28;20073;-44
2023/10/31 05:26:14;;;;;;;10.10;4.88;;;;;;;7.26;77.03;98468.94;4999375;28;20054;-49
2023/10/31 05:28:40;;;;;;;9.30;4.95;;;;;;;7.29;77.44;98463.72;5002502;28;20487;-49
2023/10/31 05:31:07;;;;;;;10.63;5.10;;;;;;;7.33;77.17;98457.69;5004526;28;20507;-49
2023/10/31 05:33:34;;;;;;;9.93;4.97;;;;;;;7.35;78.05;98453.34;5008134;28;20037;-45
2023/10/31 05:36:02;;;;;;;10.07;5.43;;;;;;;7.36;76.88;98452.47;5004932;28;20056;-47
2023/10/31 05:38:28;;;;;;;12.40;5.35;;;;;;;7.36;76.97;98442.16;4990673;28;20043;-47
2023/10/31 05:40:55;;;;;;;13.60;5.20;;;;;;;7.35;77.75;98450.75;4988099;28;20046;-46
2023/10/31 05:43:22;;;;;;;10.52;4.50;;;;;;;7.35;77.39;98440.47;5001785;28;20054;-52
2023/10/31 05:45:48;;;;;;;11.88;3.25;;;;;;;7.33;78.64;98437.06;4996871;28;20431;-47
2023/10/31 05:48:15;;;;;;;10.05;5.03;;;;;;;7.33;78.59;98439.66;4996418;28;20762;-52
2023/10/31 05:50:42;;;;;;;13.00;5.32;;;;;;;7.31;78.77;98438.81;5007329;28;20042;-46
2023/10/31 05:53:09;;;;;;;11.98;5.22;;;;;;;7.30;78.76;98426.81;5007780;28;20050;-50
2023/10/31 05:55:39;;;;;;;9.95;5.15;;;;;;;7.32;78.77;98431.06;5002917;28;20503;-47
2023/10/31 05:58:05;;;;;;;12.55;5.00;;;;;;;7.33;79.06;98434.50;5009347;28;20053;-44
2023/10/31 06:00:32;;;;;;;14.77;5.50;;;;;;;7.33;78.01;98431.94;5008704;28;20064;-47
2023/10/31 06:02:59;;;;;;;15.43;5.43;;;;;;;7.33;78.79;98439.66;5012100;28;20081;-50
2023/10/31 06:05:26;;;;;;;8.88;4.72;;;;;;;7.35;77.69;98450.75;5002809;28;20068;-45
2023/10/31 06:07:52;;;;;;;9.13;5.00;;;;;;;7.38;78.11;98455.88;4996228;28;20051;-47
2023/10/31 06:10:20;;;;;;;8.68;4.40;;;;;;;7.42;78.86;98462.69;5001843;28;20054;-48
2023/10/31 06:12:47;;;;;;;7.90;4.10;;;;;;;7.46;78.14;98455.75;5013275;28;20049;-47
2023/10/31 06:15:13;;;;;;;10.57;5.07;;;;;;;7.51;78.96;98471.13;5012557;28;20498;-45
2023/10/31 06:17:40;;;;;;;8.85;4.80;;;;;;;7.53;78.64;98475.38;5004774;28;20056;-47
2023/10/31 06:20:08;;;;;;;10.65;4.35;;;;;;;7.57;77.49;98481.34;4997545;28;20415;-50
2023/10/31 06:22:35;;;;;;;10.48;4.90;;;;;;;7.60;77.72;98483.84;5006384;28;20072;-46
2023/10/31 06:25:02;;;;;;;9.38;4.28;;;;;;;7.63;78.37;98488.97;5004562;28;20046;-43
2023/10/31 06:27:28;;;;;;;10.75;4.85;;;;;;;7.67;77.67;98485.47;5008504;28;20073;-50
2023/10/31 06:29:55;;;;;;;9.57;4.75;;;;;;;7.69;77.51;98483.72;5004754;28;20050;-48
2023/10/31 06:32:42;;;;;;;10.40;5.05;;;;;;;7.74;77.31;98482.81;4995228;28;20796;-49
2023/10/31 06:35:09;;;;;;;9.48;5.53;;;;;;;7.76;78.47;98475.88;5005331;28;20073;-47
2023/10/31 06:37:36;;;;;;;9.32;4.80;;;;;;;7.78;78.25;98471.56;5005652;28;20076;-47
2023/10/31 06:40:04;;;;;;;9.13;4.75;;;;;;;7.80;78.08;98477.56;4999702;28;20107;-49
2023/10/31 06:42:31;;;;;;;12.68;5.38;;;;;;;7.77;78.59;98467.28;5000664;28;20164;-47
2023/10/31 06:44:57;;;;;;;12.10;5.80;;;;;;;7.72;78.90;98468.22;4999367;28;20053;-47
2023/10/31 06:47:24;;;;;;;12.50;4.40;;;;;;;7.70;78.13;98467.38;4991213;28;20078;-48
2023/10/31 06:49:51;;;;;;;17.70;5.28;;;;;;;7.70;78.29;98475.13;5008355;28;20046;-47
2023/10/31 06:52:17;;;;;;;12.00;4.95;;;;;;;7.71;78.31;98473.41;5000187;28;20064;-46
2023/10/31 06:54:44;;;;;;;8.50;4.50;;;;;;;7.69;78.08;98476.00;5008240;28;20049;-52
2023/10/31 06:57:11;;;;;;;8.10;4.60;;;;;;;7.69;78.33;98481.16;5005181;28;20129;-51
2023/10/31 06:59:38;;;;;;;8.88;5.03;;;;;;;7.70;79.34;98477.69;5001776;28;20054;-48
2023/10/31 07:02:05;;;;;;;8.10;5.97;;;;;;;7.70;78.10;98475.13;4998813;28;20041;-45
2023/10/31 07:04:31;;;;;;;8.27;4.90;;;;;;;7.68;78.81;98464.00;5005328;28;20054;-47
2023/10/31 07:06:58;;;;;;;8.68;5.10;;;;;;;7.72;79.22;98475.94;4999863;28;20046;-51
2023/10/31 07:09:26;;;;;;;9.00;3.53;;;;;;;7.72;79.60;98465.66;5007144;28;20411;-51
2023/10/31 07:11:53;;;;;;;7.30;4.38;;;;;;;7.72;79.29;98475.94;5005170;28;20072;-50
2023/10/31 07:14:19;;;;;;;11.93;5.70;;;;;;;7.74;78.24;98475.06;5000941;28;20049;-46
2023/10/31 07:16:48;;;;;;;10.60;4.88;;;;;;;7.76;79.03;98473.31;5000239;28;20076;-51
2023/10/31 07:19:15;;;;;;;7.70;5.25;;;;;;;7.79;78.69;98475.84;4999668;28;20074;-50
2023/10/31 07:21:42;;;;;;;8.52;4.65;;;;;;;7.76;79.74;98486.19;5003790;28;20042;-48
2023/10/31 07:24:09;;;;;;;8.13;5.13;;;;;;;7.78;79.76;98484.44;5005853;28;20050;-49
2023/10/31 07:26:36;;;;;;;7.82;4.55;;;;;;;7.80;79.92;98480.13;4995820;28;20519;-50
2023/10/31 07:29:03;;;;;;;10.50;5.32;;;;;;;7.82;79.89;98486.09;5002966;28;20056;-53
2023/10/31 07:31:30;;;;;;;8.65;5.07;;;;;;;7.86;78.94;98498.06;4997027;28;20062;-51
2023/10/31 07:33:56;;;;;;;10.50;4.97;;;;;;;7.90;78.91;98491.97;5009019;28;20050;-48
2023/10/31 07:36:23;;;;;;;8.88;4.20;;;;;;;7.93;79.09;98497.09;5004634;28;20046;-49
2023/10/31 07:38:50;;;;;;;7.20;3.47;;;;;;;7.94;79.01;98501.34;5001210;28;20430;-47
2023/10/31 07:41:16;;;;;;;8.20;4.30;;;;;;;7.98;79.89;98512.47;5005346;28;20058;-44
2023/10/31 07:43:43;;;;;;;6.55;4.30;;;;;;;8.02;78.85;98526.16;5000723;28;20500;-49
2023/10/31 07:46:10;;;;;;;9.88;3.45;;;;;;;8.07;79.78;98526.94;5004145;28;20466;-49
2023/10/31 07:48:37;;;;;;;8.35;4.47;;;;;;;8.14;79.96;98527.69;4992383;28;20050;-50
2023/10/31 07:51:04;;;;;;;7.32;4.88;;;;;;;8.16;79.77;98531.94;4990367;28;20097;-50
2023/10/31 07:53:31;;;;;;;13.65;4.75;;;;;;;8.18;78.95;98535.31;4992552;28;20042;-48
2023/10/31 07:55:58;;;;;;;8.85;4.13;;;;;;;8.23;78.95;98528.38;4987439;28;20050;-51
2023/10/31 07:58:24;;;;;;;7.40;4.07;;;;;;;8.28;79.10;98525.69;4990035;28;20073;-49
2023/10/31 08:00:51;;;;;;;6.72;4.05;;;;;;;8.31;79.01;98529.97;4994337;28;20502;-51
2023/10/31 08:03:18;;;;;;;9.65;3.05;;;;;;;8.33;79.26;98529.06;5000334;28;20419;-51
2023/10/31 08:05:45;;;;;;;8.98;4.90;;;;;;;8.38;79.86;98525.56;4991572;28;20077;-47
2023/10/31 08:08:12;;;;;;;9.38;4.68;;;;;;;8.40;79.51;98527.22;4988874;28;20050;-48
2023/10/31 08:10:39;;;;;;;10.55;4.40;;;;;;;8.45;79.68;98535.72;4996817;28;20050;-46
2023/10/31 08:13:05;;;;;;;9.20;4.72;;;;;;;8.51;79.03;98536.50;4990561;28;20147;-47
2023/10/31 08:15:32;;;;;;;10.75;5.78;;;;;;;8.56;79.51;98535.56;4991426;28;20096;-43
2023/10/31 08:17:59;;;;;;;7.47;4.30;;;;;;;8.60;79.15;98546.66;4995815;28;20049;-51
2023/10/31 08:20:25;;;;;;;9.63;4.53;;;;;;;8.63;79.47;98550.91;4996012;28;20712;-45
2023/10/31 08:22:52;;;;;;;9.45;3.25;;;;;;;8.68;79.22;98552.53;4979984;28;20050;-49
2023/10/31 08:25:19;;;;;;;8.43;4.35;;;;;;;8.73;79.23;98553.31;4994059;28;20058;-51
2023/10/31 08:27:46;;;;;;;6.57;4.15;;;;;;;8.79;79.36;98541.16;4991128;28;20507;-49
2023/10/31 08:30:14;;;;;;;10.38;4.95;;;;;;;8.84;79.53;98549.66;4986083;28;20046;-46
2023/10/31 08:32:41;;;;;;;12.38;6.10;;;;;;;8.90;79.35;98546.97;4994040;28;20050;-51
2023/10/31 08:35:08;;;;;;;8.15;4.30;;;;;;;8.93;79.39;98536.56;4999226;28;20057;-47
2023/10/31 08:37:35;;;;;;;8.50;5.00;;;;;;;8.97;78.83;98543.38;4997167;28;20048;-46
2023/10/31 08:40:03;;;;;;;8.05;4.60;;;;;;;8.99;79.69;98546.75;4997014;28;20057;-46
2023/10/31 08:42:30;;;;;;;8.45;5.03;;;;;;;9.00;79.49;98538.16;4995394;28;20050;-44
2023/10/31 08:44:57;;;;;;;9.55;4.82;;;;;;;9.04;78.97;98532.91;5001877;28;20050;-47
2023/10/31 08:47:23;;;;;;;10.75;4.72;;;;;;;9.06;79.51;98539.75;4992713;28;20053;-44
2023/10/31 08:49:51;;;;;;;11.75;4.63;;;;;;;9.06;79.45;98537.19;5003571;28;20046;-43
2023/10/31 08:52:17;;;;;;;11.52;3.28;;;;;;;9.09;79.77;98544.84;5005686;28;20447;-48
2023/10/31 08:54:44;;;;;;;10.00;5.13;;;;;;;9.10;79.50;98545.69;5013448;28;20060;-48
2023/10/31 08:57:11;;;;;;;9.00;4.63;;;;;;;9.12;79.73;98543.94;4995013;28;20053;-49
2023/10/31 08:59:37;;;;;;;12.63;5.82;;;;;;;9.16;79.73;98552.47;4990989;28;20504;-46
2023/10/31 09:02:04;;;;;;;12.93;5.85;;;;;;;9.19;79.70;98555.81;4996455;28;20049;-49
2023/10/31 09:04:31;;;;;;;10.15;3.95;;;;;;;9.21;79.79;98554.06;4998955;28;20411;-42
2023/10/31 09:06:58;;;;;;;8.70;4.75;;;;;;;9.24;79.46;98554.00;5000457;28;20069;-46
2023/10/31 09:09:24;;;;;;;9.15;4.63;;;;;;;9.28;79.90;98559.13;4996620;28;20049;-51
2023/10/31 09:11:51;;;;;;;9.27;4.15;;;;;;;9.31;79.83;98559.03;4996060;28;20042;-49
2023/10/31 09:14:17;;;;;;;10.07;5.90;;;;;;;9.35;79.65;98550.31;4993211;28;20045;-47
2023/10/31 09:16:44;;;;;;;12.25;5.05;;;;;;;9.39;79.69;98552.81;5005898;28;20050;-49
2023/10/31 09:19:11;;;;;;;13.48;5.07;;;;;;;9.45;79.86;98543.22;5001835;28;20046;-48
2023/10/31 09:21:37;;;;;;;15.07;4.57;;;;;;;9.47;79.57;98544.06;5005866;28;20472;-46
2023/10/31 09:24:04;;;;;;;19.92;6.93;;;;;;;9.50;79.71;98547.41;5000985;28;20058;-47
2023/10/31 09:26:31;;;;;;;16.55;6.03;;;;;;;9.55;79.53;98556.81;5002254;28;20096;-46
2023/10/31 09:28:58;;;;;;;10.45;5.22;;;;;;;9.59;79.86;98558.44;5006407;28;20049;-52
2023/10/31 09:31:25;;;;;;;10.50;5.10;;;;;;;9.62;79.76;98566.97;5004170;28;20403;-49
2023/10/31 09:33:52;;;;;;;12.20;6.05;;;;;;;9.67;79.78;98561.69;5003404;28;20054;-48
2023/10/31 09:36:20;;;;;;;22.92;5.95;;;;;;;9.70;79.75;98555.59;5001732;28;20050;-50
2023/10/31 09:38:46;;;;;;;17.63;5.75;;;;;;;9.75;79.83;98561.50;5007174;28;20671;-48
2023/10/31 09:41:14;;;;;;;13.48;6.00;;;;;;;9.81;79.31;98553.63;4998326;28;20108;-47
2023/10/31 09:43:42;;;;;;;17.30;6.25;;;;;;;9.87;79.27;98568.13;5001417;28;20049;-49
2023/10/31 09:46:09;;;;;;;15.15;5.57;;;;;;;9.92;79.59;98568.03;5003082;28;20072;-47
2023/10/31 09:48:38;;;;;;;16.10;6.45;;;;;;;9.95;79.47;98563.63;5013272;28;20046;-47
2023/10/31 09:51:05;;;;;;;18.77;6.15;;;;;;;9.99;80.00;98567.84;5020255;28;20087;-46
2023/10/31 09:53:37;;;;;;;15.68;5.93;;;;;;;10.05;79.49;98568.56;5010174;28;20112;-50
2023/10/31 09:56:04;;;;;;;19.27;5.85;;;;;;;10.08;80.24;98574.53;4996601;28;20104;-45
2023/10/31 09:58:31;;;;;;;16.77;5.78;;;;;;;10.12;79.57;98570.13;5019146;28;20140;-47
2023/10/31 10:00:58;;;;;;;17.92;6.43;;;;;;;10.15;79.27;98570.03;5007890;28;20047;-49
2023/10/31 10:03:25;;;;;;;21.33;6.10;;;;;;;10.21;79.36;98567.31;5007025;28;20046;-47
2023/10/31 10:05:53;;;;;;;14.60;5.35;;;;;;;10.26;80.12;98569.78;5006917;28;20132;-50
2023/10/31 10:08:20;;;;;;;17.48;5.03;;;;;;;10.31;80.20;98574.84;4999942;28;20383;-48
2023/10/31 10:10:47;;;;;;;14.05;6.05;;;;;;;10.35;79.65;98579.03;4992595;28;20054;-47
2023/10/31 10:13:17;;;;;;;15.50;5.68;;;;;;;10.39;79.59;98570.31;4999918;28;20060;-48
2023/10/31 10:18:31;;;;;;;23.35;6.97;;;;;;;10.76;80.66;98578.88;5020225;28;20772;-47
2023/10/31 10:21:00;;;;;;;21.35;5.75;;;;;;;10.69;80.17;98579.94;5010076;28;20051;-49
2023/10/31 10:23:28;;;;;;;18.73;5.75;;;;;;;10.72;80.59;98578.13;4998483;28;20051;-44
2023/10/31 10:25:57;;;;;;;16.52;5.65;;;;;;;10.76;80.45;98579.72;4982056;28;20718;-47
2023/10/31 10:28:25;;;;;;;16.98;5.60;;;;;;;10.80;80.32;98581.34;5008304;28;20078;-47
2023/10/31 10:30:53;;;;;;;23.67;6.43;;;;;;;10.84;79.79;98586.44;5006962;28;20046;-48
2023/10/31 10:33:21;;;;;;;17.75;5.10;;;;;;;10.89;80.67;98588.03;5015055;28;20055;-46
2023/10/31 10:35:48;;;;;;;19.20;5.95;;;;;;;10.98;80.79;98597.25;4983550;28;20081;-49
2023/10/31 10:38:16;;;;;;;14.68;4.90;;;;;;;11.04;80.88;98593.66;4988740;28;20054;-48
2023/10/31 10:40:48;;;;;;;16.48;5.43;;;;;;;11.07;80.17;98592.75;4979701;28;20057;-51
2023/10/31 10:45:57;;;;;;;13.63;4.43;;;;;;;11.04;79.64;98589.31;5056530;28;21033;-49
2023/10/31 10:48:26;;;;;;;14.68;4.20;;;;;;;11.01;80.32;98594.59;5016236;28;20041;-51
2023/10/31 10:53:50;;;;;;;12.25;3.72;;;;;;;10.99;80.50;98604.16;5038598;27;20402;-50
2023/10/31 10:56:39;;;;;;;12.38;4.32;;;;;;;10.95;79.87;98599.97;5022022;28;20050;-48
2023/10/31 10:59:12;;;;;;;16.77;4.20;;;;;;;10.96;80.65;98598.19;5017288;28;20050;-47
2023/10/31 11:01:42;;;;;;;15.63;5.13;;;;;;;10.99;79.95;98595.53;5021685;28;20069;-52
2023/10/31 11:04:10;;;;;;;14.15;5.20;;;;;;;10.98;80.18;98597.25;5017949;28;20053;-47
2023/10/31 11:06:38;;;;;;;14.68;4.88;;;;;;;10.99;79.16;98600.72;5020030;28;20049;-48
2023/10/31 11:09:07;;;;;;;12.38;4.68;;;;;;;11.00;80.69;98603.25;5020026;28;20088;-49
2023/10/31 11:11:33;;;;;;;18.70;4.43;;;;;;;11.06;80.54;98597.06;5016041;28;20414;-52
2023/10/31 11:14:01;;;;;;;18.13;5.55;;;;;;;11.13;79.83;98595.13;5016550;28;20045;-50
2023/10/31 11:16:38;;;;;;;18.77;6.53;;;;;;;11.16;79.45;98589.88;5013291;28;20065;-50
2023/10/31 11:19:05;;;;;;;17.33;4.72;;;;;;;11.17;80.17;98595.00;5013543;28;20499;-50
2023/10/31 11:21:34;;;;;;;19.55;5.72;;;;;;;11.20;80.19;98591.47;5014559;28;20064;-49
2023/10/31 11:24:01;;;;;;;15.82;4.75;;;;;;;11.23;79.48;98591.41;5019356;28;20061;-47
2023/10/31 11:26:30;;;;;;;14.50;5.35;;;;;;;11.24;80.48;98600.88;5011845;28;20050;-50
2023/10/31 11:29:12;;;;;;;18.27;6.05;;;;;;;11.24;79.54;98600.00;5019531;28;20053;-47
2023/10/31 11:31:39;;;;;;;13.73;4.28;;;;;;;11.26;80.05;98599.09;5015342;28;20132;-48
2023/10/31 11:34:06;;;;;;;13.70;4.50;;;;;;;11.25;79.23;98605.16;5000934;28;20062;-50
2023/10/31 11:36:33;;;;;;;16.13;4.85;;;;;;;11.26;79.78;98604.28;4995677;28;20050;-50
2023/10/31 11:39:13;;;;;;;10.45;4.22;;;;;;;11.23;79.92;98599.16;4999576;28;20507;-51
2023/10/31 11:41:40;;;;;;;11.77;4.60;;;;;;;11.25;79.94;98599.13;5009680;28;20504;-51